Time;durP1;ratioP1;P1;durP2;ratioP2;P2;SDS_P1;SDS_P2;PMS_P1;PMS_P2;Temp;Humidity;BMP_temperature;BMP_pressure;BME280_temperature;BME280_humidity;BME280_pressure;Samples;Min_cycle;Max_cycle;Signal;HPM_P1;HPM_P2
2022/07/30 00:00:52;;;;;;;;;10.60;10.40;;;;;19.78;53.68;99952.50;5136508;27;9630;-62
2022/07/30 00:03:20;;;;;;;;;13.00;13.00;;;;;19.73;54.43;99954.88;5136666;27;8826;-63
2022/07/30 00:05:47;;;;;;;;;11.00;11.00;;;;;19.68;54.59;99946.50;5134944;27;8842;-62
2022/07/30 00:08:16;;;;;;;;;13.00;12.60;;;;;19.65;53.99;99946.00;5136163;27;8817;-62
2022/07/30 00:10:43;;;;;;;;;11.40;11.40;;;;;19.61;54.60;99934.72;5136704;27;8814;-63
2022/07/30 00:13:12;;;;;;;;;12.60;12.60;;;;;19.56;54.23;99939.81;5136193;27;8810;-63
2022/07/30 00:15:40;;;;;;;;;8.80;8.80;;;;;19.52;54.41;99934.94;5135368;27;8814;-61
2022/07/30 00:18:08;;;;;;;;;11.60;11.60;;;;;19.47;55.01;99931.94;5136175;27;8810;-62
2022/07/30 00:20:39;;;;;;;;;8.20;8.20;;;;;19.41;54.65;99930.78;5136691;27;8825;-62
2022/07/30 00:23:10;;;;;;;;;13.80;13.00;;;;;19.37;54.83;99925.94;5125334;27;8800;-62
2022/07/30 00:25:38;;;;;;;;;10.80;10.60;;;;;19.32;54.64;99934.56;5115833;28;8828;-63
2022/07/30 00:28:06;;;;;;;;;13.80;12.80;;;;;19.25;55.14;99925.50;5118012;27;8824;-62
2022/07/30 00:30:33;;;;;;;;;13.80;12.80;;;;;19.18;55.33;99924.47;5115875;28;8844;-61
2022/07/30 00:33:01;;;;;;;;;12.80;12.60;;;;;19.11;55.11;99926.19;5109100;28;8908;-61
2022/07/30 00:35:29;;;;;;;;;14.80;14.80;;;;;19.03;55.55;99923.53;5095287;28;9568;-61
2022/07/30 00:37:57;;;;;;;;;10.40;10.40;;;;;18.96;55.89;99927.97;5094315;28;8965;-62
2022/07/30 00:40:24;;;;;;;;;16.80;13.00;;;;;18.90;55.48;99928.66;5093830;28;8840;-62
2022/07/30 00:42:52;;;;;;;;;12.40;12.40;;;;;18.84;55.62;99925.81;5093906;28;8818;-61
2022/07/30 00:45:20;;;;;;;;;13.60;12.80;;;;;18.78;55.94;99919.28;5085424;28;8842;-62
2022/07/30 00:47:48;;;;;;;;;13.80;13.60;;;;;18.73;56.11;99932.44;5108515;28;8860;-62
2022/07/30 00:50:15;;;;;;;;;13.40;13.00;;;;;18.68;55.91;99929.41;5100993;28;8964;-63
2022/07/30 00:52:43;;;;;;;;;17.20;15.80;;;;;18.65;56.32;99924.38;5115434;28;8940;-63
2022/07/30 00:55:11;;;;;;;;;12.80;12.80;;;;;18.62;56.38;99919.34;5122182;28;8816;-62
2022/07/30 00:57:39;;;;;;;;;15.00;15.00;;;;;18.60;56.45;99918.66;5118145;28;8849;-62
2022/07/30 01:00:07;;;;;;;;;11.80;10.80;;;;;18.56;56.59;99913.78;5109698;28;8974;-62
2022/07/30 01:02:35;;;;;;;;;17.80;16.80;;;;;18.54;56.71;99921.22;5121160;28;9016;-62
2022/07/30 01:05:02;;;;;;;;;15.40;13.00;;;;;18.51;56.61;99919.69;5121989;28;8843;-62
2022/07/30 01:07:30;;;;;;;;;13.60;13.00;;;;;18.48;56.79;99916.50;5121714;28;8812;-62
2022/07/30 01:09:58;;;;;;;;;9.60;9.00;;;;;18.46;57.05;99916.69;5108711;28;8976;-62
2022/07/30 01:12:26;;;;;;;;;12.20;12.20;;;;;18.42;56.67;99923.44;5112585;28;8816;-63
2022/07/30 01:14:54;;;;;;;;;12.75;10.50;;;;;18.38;56.90;99923.94;5100923;28;8850;-61
2022/07/30 01:17:22;;;;;;;;;12.00;12.00;;;;;18.33;57.20;99923.63;5108411;28;8950;-62
2022/07/30 01:19:51;;;;;;;;;15.80;12.60;;;;;18.29;56.92;99919.56;5108820;28;8913;-61
2022/07/30 01:22:18;;;;;;;;;15.50;14.50;;;;;18.25;57.40;99923.59;5116390;28;8880;-62
2022/07/30 01:24:46;;;;;;;;;17.50;16.50;;;;;18.21;57.12;99925.78;5122156;28;8910;-62
2022/07/30 01:27:14;;;;;;;;;12.80;10.40;;;;;18.17;56.86;99924.47;5106813;28;8919;-62
2022/07/30 01:29:46;;;;;;;;;13.50;12.75;;;;;18.11;57.36;99925.13;5110584;28;9015;-63
2022/07/30 01:32:14;;;;;;;;;12.00;11.00;;;;;18.07;57.32;99923.78;5111345;28;8814;-62
2022/07/30 01:34:41;;;;;;;;;18.00;16.00;;;;;18.03;57.90;99925.16;5118639;28;8811;-62
2022/07/30 01:37:09;;;;;;;;;15.00;14.00;;;;;18.00;57.55;99920.09;5116609;28;8826;-62
2022/07/30 01:39:38;;;;;;;;;13.00;13.00;;;;;17.97;57.47;99920.44;5102092;28;8976;-62
2022/07/30 01:42:07;;;;;;;;;17.00;16.75;;;;;17.93;58.27;99918.25;5101389;28;8848;-62
2022/07/30 01:44:34;;;;;;;;;17.25;15.50;;;;;17.89;57.93;99922.28;5102206;28;8817;-63
2022/07/30 01:47:02;;;;;;;;;12.75;12.75;;;;;17.84;57.85;99916.56;5104541;28;8951;-62
2022/07/30 01:49:30;;;;;;;;;14.50;13.00;;;;;17.78;58.03;99920.75;5119997;28;8838;-62
2022/07/30 01:51:58;;;;;;;;;17.00;17.00;;;;;17.73;58.13;99912.34;5117725;28;8844;-62
2022/07/30 01:54:25;;;;;;;;;16.50;15.75;;;;;17.70;57.85;99918.06;5121768;28;8858;-62
2022/07/30 01:56:54;;;;;;;;;18.00;16.50;;;;;17.67;58.27;99925.63;5120095;28;9723;-63
2022/07/30 01:59:21;;;;;;;;;15.75;15.25;;;;;17.62;58.55;99926.13;5112541;28;8836;-62
2022/07/30 02:01:49;;;;;;;;;13.67;13.67;;;;;17.58;58.65;99929.34;5097291;28;8814;-63
2022/07/30 02:04:17;;;;;;;;;13.50;13.00;;;;;17.53;58.84;99929.84;5112178;28;8812;-62
2022/07/30 02:06:45;;;;;;;;;17.00;16.25;;;;;17.47;58.96;99935.88;5116927;28;8832;-61
2022/07/30 02:09:14;;;;;;;;;15.50;15.00;;;;;17.39;59.32;99926.97;5118566;28;8930;-62
2022/07/30 02:14:28;;;;;;;;;14.50;14.50;;;;;17.23;59.37;99935.81;5118585;28;8916;-62
2022/07/30 02:16:57;;;;;;;;;10.50;9.00;;;;;17.18;59.33;99932.78;5118148;28;8970;-63
2022/07/30 02:19:25;;;;;;;;;20.00;17.25;;;;;17.16;59.69;99931.25;5117693;28;9513;-62
2022/07/30 02:22:00;;;;;;;;;16.00;16.00;;;;;17.15;59.37;99929.56;5116390;28;8955;-62
2022/07/30 02:24:28;;;;;;;;;13.00;13.00;;;;;17.18;60.00;99935.47;5117886;28;8827;-62
2022/07/30 02:26:56;;;;;;;;;22.50;19.00;;;;;17.19;59.69;99937.16;5117778;28;8908;-63
2022/07/30 02:29:24;;;;;;;;;16.25;15.25;;;;;17.20;59.23;99943.34;5111502;28;8940;-62
2022/07/30 02:31:52;;;;;;;;;18.00;16.00;;;;;17.19;59.26;99936.28;5096979;28;8830;-62
2022/07/30 02:34:20;;;;;;;;;9.75;8.50;;;;;17.17;59.53;99932.94;5098750;28;8838;-62
2022/07/30 02:36:49;;;;;;;;;14.75;14.50;;;;;17.16;59.29;99932.06;5108066;28;8816;-62
2022/07/30 02:39:16;;;;;;;;;10.50;10.00;;;;;17.15;59.76;99930.41;5117436;28;8820;-62
2022/07/30 02:41:44;;;;;;;;;12.00;11.00;;;;;17.16;59.47;99936.63;5117663;28;8971;-62
2022/07/30 02:44:16;;;;;;;;;16.25;14.00;;;;;17.14;59.88;99944.88;5115902;28;8933;-62
2022/07/30 02:46:44;;;;;;;;;13.25;12.75;;;;;17.13;59.72;99948.56;5117406;28;8820;-62
2022/07/30 02:49:12;;;;;;;;;16.50;16.50;;;;;17.11;59.36;99949.72;5115195;28;8836;-62
2022/07/30 02:51:40;;;;;;;;;11.25;9.75;;;;;17.08;60.00;99948.19;5112678;28;8830;-63
2022/07/30 02:54:07;;;;;;;;;16.00;16.00;;;;;17.07;59.92;99946.53;5097084;28;8850;-63
2022/07/30 02:56:38;;;;;;;;;14.50;12.00;;;;;17.03;59.98;99945.19;5096945;28;8833;-66
2022/07/30 02:59:06;;;;;;;;;14.00;13.00;;;;;17.00;60.42;99952.72;5099702;28;8836;-62
2022/07/30 03:01:33;;;;;;;;;13.00;13.00;;;;;16.96;60.27;99944.13;5114470;28;8856;-61
2022/07/30 03:04:01;;;;;;;;;20.25;17.25;;;;;16.93;60.26;99941.75;5106668;28;8824;-62
2022/07/30 03:06:29;;;;;;;;;15.25;14.00;;;;;16.92;60.09;99942.75;5099976;28;8903;-62
2022/07/30 03:08:58;;;;;;;;;19.00;19.00;;;;;16.89;60.14;99943.09;5097115;28;8830;-62
2022/07/30 03:11:26;;;;;;;;;18.75;17.50;;;;;16.90;60.44;99938.53;5096481;28;8825;-62
2022/07/30 03:13:54;;;;;;;;;16.50;16.50;;;;;16.88;60.36;99945.94;5096635;28;8952;-62
2022/07/30 03:16:21;;;;;;;;;15.50;15.50;;;;;16.90;59.53;99943.94;5096902;28;9507;-62
2022/07/30 03:18:49;;;;;;;;;21.75;19.00;;;;;16.91;60.10;99949.16;5096594;28;8838;-63
2022/07/30 03:21:17;;;;;;;;;14.50;13.00;;;;;16.91;60.25;99946.47;5101574;28;8835;-63
2022/07/30 03:23:45;;;;;;;;;15.00;14.00;;;;;16.89;59.80;99951.16;5106987;28;8845;-63
2022/07/30 03:26:13;;;;;;;;;18.75;15.00;;;;;16.86;60.44;99943.41;5098232;28;8860;-62
2022/07/30 03:28:41;;;;;;;;;12.00;10.75;;;;;16.84;59.80;99947.25;5117246;28;8835;-63
2022/07/30 03:31:09;;;;;;;;;17.00;16.75;;;;;16.80;60.52;99946.72;5116547;28;8843;-63
2022/07/30 03:33:38;;;;;;;;;16.50;15.50;;;;;16.77;60.14;99952.44;5126023;27;8834;-63
2022/07/30 03:36:06;;;;;;;;;15.75;15.25;;;;;16.75;60.48;99953.59;5116483;27;8828;-63
2022/07/30 03:38:34;;;;;;;;;17.75;17.00;;;;;16.71;60.60;99952.25;5117098;28;8819;-61
2022/07/30 03:41:02;;;;;;;;;17.00;16.50;;;;;16.69;60.74;99948.88;5130922;27;8808;-62
2022/07/30 03:43:29;;;;;;;;;16.00;15.25;;;;;16.66;60.67;99949.19;5115964;28;8815;-61
2022/07/30 03:46:00;;;;;;;;;13.50;11.50;;;;;16.65;60.67;99948.34;5116795;27;8982;-62
2022/07/30 03:48:28;;;;;;;;;15.50;13.75;;;;;16.66;60.79;99947.38;5116536;28;8828;-61
2022/07/30 03:50:56;;;;;;;;;13.50;13.50;;;;;16.66;60.42;99943.81;5117286;27;8816;-62
2022/07/30 03:53:24;;;;;;;;;15.25;14.75;;;;;16.68;60.69;99952.56;5136061;27;8806;-62
2022/07/30 03:55:51;;;;;;;;;13.00;12.00;;;;;16.66;60.63;99950.06;5135268;27;8849;-62
2022/07/30 03:58:21;;;;;;;;;13.00;13.00;;;;;16.63;60.35;99936.09;5136160;27;8834;-61
2022/07/30 04:00:48;;;;;;;;;14.50;14.50;;;;;16.59;60.48;99946.31;5119622;27;8860;-61
2022/07/30 04:03:16;;;;;;;;;19.00;18.50;;;;;16.50;61.00;99949.94;5116092;28;8816;-62
2022/07/30 04:05:44;;;;;;;;;16.00;15.50;;;;;16.44;60.53;99944.38;5124327;27;8838;-61
2022/07/30 04:08:12;;;;;;;;;16.25;15.00;;;;;16.38;61.12;99954.91;5136062;27;8798;-61
2022/07/30 04:10:40;;;;;;;;;18.00;17.25;;;;;16.31;60.91;99955.50;5135634;27;8810;-62
2022/07/30 04:13:07;;;;;;;;;14.25;14.00;;;;;16.29;61.52;99962.03;5136165;27;8814;-62
2022/07/30 04:15:36;;;;;;;;;13.50;13.50;;;;;16.27;60.88;99969.44;5136942;27;8906;-62
2022/07/30 04:18:24;;;;;;;;;15.50;15.00;;;;;16.26;60.95;99973.13;5136301;27;8916;-62
2022/07/30 04:20:51;;;;;;;;;16.50;16.25;;;;;16.23;61.40;99968.91;5136038;27;8810;-62
2022/07/30 04:23:19;;;;;;;;;15.00;13.00;;;;;16.23;61.69;99980.66;5135962;27;8818;-62
2022/07/30 04:25:47;;;;;;;;;13.00;13.00;;;;;16.22;61.19;99981.66;5136316;27;8802;-61
2022/07/30 04:28:15;;;;;;;;;17.00;14.00;;;;;16.20;61.50;99982.63;5134268;27;8888;-62
2022/07/30 04:30:43;;;;;;;;;18.75;14.25;;;;;16.21;61.75;99980.81;5119860;28;8878;-63
2022/07/30 04:33:10;;;;;;;;;15.00;14.00;;;;;16.19;61.05;99989.00;5107871;28;8826;-62
2022/07/30 04:35:38;;;;;;;;;15.75;15.50;;;;;16.18;61.45;99987.31;5096417;28;8933;-62
2022/07/30 04:38:19;;;;;;;;;12.75;11.75;;;;;16.19;61.53;99990.88;5095227;28;8826;-62
2022/07/30 04:40:47;;;;;;;;;15.75;12.75;;;;;16.20;61.49;99997.94;5097101;28;8834;-61
2022/07/30 04:43:15;;;;;;;;;13.00;12.75;;;;;16.17;61.45;100000.09;5111416;28;8830;-62
2022/07/30 04:45:43;;;;;;;;;15.00;14.00;;;;;16.15;61.39;100002.09;5105366;28;8822;-62
2022/07/30 04:48:11;;;;;;;;;15.00;12.00;;;;;16.12;61.15;100007.75;5095233;28;8940;-62
2022/07/30 04:50:38;;;;;;;;;13.50;13.00;;;;;16.10;61.57;100016.00;5094679;28;8868;-61
2022/07/30 04:53:06;;;;;;;;;19.25;17.00;;;;;16.10;61.77;100013.31;5098186;28;8829;-62
2022/07/30 04:55:35;;;;;;;;;12.75;12.25;;;;;16.12;61.27;100014.00;5110453;28;8950;-61
2022/07/30 04:58:02;;;;;;;;;16.75;14.50;;;;;16.20;61.46;100019.44;5115045;28;8860;-62
2022/07/30 05:00:30;;;;;;;;;14.50;14.50;;;;;16.28;61.21;100014.13;5099857;28;9764;-61
2022/07/30 05:02:59;;;;;;;;;12.00;12.00;;;;;16.38;61.22;100022.94;5093903;28;8844;-61
2022/07/30 05:05:26;;;;;;;;;18.00;18.00;;;;;16.47;61.09;100024.72;5094136;28;8834;-62
2022/07/30 05:07:56;;;;;;;;;16.75;15.50;;;;;16.56;60.21;100019.22;5108157;28;8932;-61
2022/07/30 05:10:24;;;;;;;;;14.75;11.75;;;;;16.68;60.25;100023.34;5114087;28;8918;-61
2022/07/30 05:12:52;;;;;;;;;15.00;15.00;;;;;16.79;60.17;100028.44;5112584;28;8820;-61
2022/07/30 05:15:20;;;;;;;;;16.00;15.50;;;;;16.91;59.65;100035.25;5113167;28;8824;-61
2022/07/30 05:17:48;;;;;;;;;15.00;15.00;;;;;17.01;60.16;100027.06;5104775;28;8834;-62
2022/07/30 05:20:15;;;;;;;;;12.25;11.50;;;;;17.13;59.29;100033.84;5094590;28;8960;-62
2022/07/30 05:22:43;;;;;;;;;19.00;18.50;;;;;17.23;59.60;100040.78;5093975;28;8817;-61
2022/07/30 05:25:17;;;;;;;;;18.25;17.50;;;;;17.39;58.56;100037.34;5094859;28;8996;-61
2022/07/30 05:27:45;;;;;;;;;12.50;12.00;;;;;17.52;58.63;100041.25;5112313;28;8935;-62
2022/07/30 05:30:13;;;;;;;;;17.50;16.00;;;;;17.68;58.57;100043.19;5103654;28;8972;-61
2022/07/30 05:32:42;;;;;;;;;17.75;16.75;;;;;17.78;58.54;100042.00;5096245;28;8830;-61
2022/07/30 05:35:12;;;;;;;;;18.50;17.50;;;;;17.92;58.30;100038.66;5098547;28;8857;-63
2022/07/30 05:37:41;;;;;;;;;18.00;17.00;;;;;18.05;58.07;100043.56;5099024;28;8818;-61
2022/07/30 05:40:08;;;;;;;;;16.50;15.50;;;;;18.15;57.80;100044.25;5118346;28;8930;-62
2022/07/30 05:42:36;;;;;;;;;19.75;18.00;;;;;18.25;57.75;100043.09;5118278;28;8846;-62
2022/07/30 05:45:04;;;;;;;;;18.75;18.50;;;;;18.37;57.60;100039.06;5118176;28;8827;-61
2022/07/30 05:47:32;;;;;;;;;18.00;16.50;;;;;18.48;57.48;100038.72;5118270;28;8838;-62
2022/07/30 05:50:00;;;;;;;;;16.00;15.75;;;;;18.62;56.75;100046.13;5098348;28;8819;-62
2022/07/30 05:52:31;;;;;;;;;16.25;16.25;;;;;18.73;57.11;100042.25;5109979;28;8892;-61
2022/07/30 05:55:00;;;;;;;;;18.25;15.25;;;;;18.82;57.04;100039.34;5118306;28;8969;-62
2022/07/30 05:57:27;;;;;;;;;25.20;23.00;;;;;18.88;56.59;100041.34;5117300;28;8942;-61
2022/07/30 05:59:55;;;;;;;;;21.00;19.75;;;;;18.93;56.56;100038.13;5109080;28;8858;-61
2022/07/30 06:02:23;;;;;;;;;18.00;15.00;;;;;18.98;56.51;100033.91;5097758;28;8810;-63
2022/07/30 06:04:51;;;;;;;;;24.25;21.50;;;;;19.04;56.89;100032.38;5097536;28;8965;-63
2022/07/30 06:07:18;;;;;;;;;12.50;12.00;;;;;19.07;56.59;100027.47;5096951;28;8841;-62
2022/07/30 06:09:46;;;;;;;;;23.25;23.00;;;;;19.09;56.91;100030.84;5098894;28;8857;-62
2022/07/30 06:12:14;;;;;;;;;21.00;19.00;;;;;19.16;56.89;100031.84;5097798;28;8926;-62
2022/07/30 06:14:42;;;;;;;;;25.40;21.60;;;;;19.27;56.05;100034.16;5097612;28;8822;-62
2022/07/30 06:17:10;;;;;;;;;22.00;21.40;;;;;19.35;56.24;100038.72;5098123;28;9523;-62
2022/07/30 06:19:37;;;;;;;;;24.20;20.00;;;;;19.42;56.03;100037.00;5098952;28;8830;-61
2022/07/30 06:22:05;;;;;;;;;23.80;22.60;;;;;19.52;56.51;100043.88;5116785;28;8982;-62
2022/07/30 06:24:34;;;;;;;;;21.40;17.20;;;;;19.59;56.38;100042.16;5118152;28;8828;-62
2022/07/30 06:27:01;;;;;;;;;21.60;21.20;;;;;19.71;56.41;100037.19;5117362;28;8839;-63
2022/07/30 06:29:30;;;;;;;;;22.75;22.75;;;;;19.81;55.78;100030.50;5112683;28;8988;-61
2022/07/30 06:31:58;;;;;;;;;19.00;18.60;;;;;19.89;55.99;100035.84;5096916;28;9713;-62
2022/07/30 06:34:25;;;;;;;;;29.40;25.80;;;;;19.97;56.06;100037.69;5097623;28;8871;-61
2022/07/30 06:36:55;;;;;;;;;23.80;22.60;;;;;20.02;55.73;100036.13;5098422;28;8825;-62
2022/07/30 06:39:22;;;;;;;;;25.00;22.80;;;;;20.11;56.11;100040.47;5098562;28;8938;-62
2022/07/30 06:42:10;;;;;;;;;22.00;19.80;;;;;20.21;55.84;100041.09;5100796;28;8853;-62
2022/07/30 06:44:38;;;;;;;;;21.40;20.40;;;;;20.31;55.69;100048.97;5096596;28;8822;-62
2022/07/30 06:47:05;;;;;;;;;15.40;13.80;;;;;20.40;55.71;100040.59;5096810;28;8829;-62
2022/07/30 06:49:35;;;;;;;;;22.40;20.20;;;;;20.52;55.29;100047.25;5103535;28;8838;-62
2022/07/30 06:52:02;;;;;;;;;21.20;20.00;;;;;20.63;55.00;100040.56;5112988;28;8823;-61
2022/07/30 06:54:30;;;;;;;;;18.60;18.40;;;;;20.69;54.91;100051.50;5117283;28;8859;-62
2022/07/30 06:56:58;;;;;;;;;21.60;18.40;;;;;20.77;54.71;100048.69;5117013;28;8812;-61
2022/07/30 06:59:26;;;;;;;;;21.20;19.40;;;;;20.85;54.72;100048.63;5112541;28;8942;-62
2022/07/30 07:01:54;;;;;;;;;20.80;20.00;;;;;20.92;54.62;100047.75;5096696;28;9491;-62
2022/07/30 07:04:22;;;;;;;;;19.60;19.60;;;;;21.03;54.63;100054.56;5096229;28;8842;-62
2022/07/30 07:06:50;;;;;;;;;20.00;18.40;;;;;21.11;54.36;100054.47;5097208;28;8818;-62
2022/07/30 07:09:18;;;;;;;;;15.20;13.20;;;;;21.16;54.60;100060.16;5116829;28;8828;-62
2022/07/30 07:11:45;;;;;;;;;21.00;19.80;;;;;21.22;54.40;100054.84;5112389;28;8826;-63
2022/07/30 07:14:13;;;;;;;;;21.40;20.40;;;;;21.32;54.00;100054.56;5095920;28;8818;-63
2022/07/30 07:16:42;;;;;;;;;17.60;17.60;;;;;21.38;54.05;100056.50;5095900;28;8826;-61
2022/07/30 07:19:15;;;;;;;;;18.80;18.00;;;;;21.50;54.16;100055.84;5095609;28;8838;-62
2022/07/30 07:22:03;;;;;;;;;21.20;19.80;;;;;21.61;53.68;100055.38;5096569;28;8838;-62
2022/07/30 07:24:31;;;;;;;;;24.80;24.20;;;;;21.64;53.56;100056.88;5095905;28;9758;-62
2022/07/30 07:26:58;;;;;;;;;21.40;21.00;;;;;21.68;53.67;100056.34;5095219;28;8806;-62
2022/07/30 07:29:27;;;;;;;;;16.00;14.40;;;;;21.78;53.63;100056.88;5098877;28;9361;-62
2022/07/30 07:31:54;;;;;;;;;22.60;20.80;;;;;21.85;53.79;100057.78;5114401;28;8820;-62
2022/07/30 07:34:34;;;;;;;;;22.80;20.20;;;;;21.99;53.50;100054.19;5135885;27;8845;-62
2022/07/30 07:37:02;;;;;;;;;19.80;18.60;;;;;22.11;53.20;100047.25;5136326;27;8883;-61
2022/07/30 07:39:30;;;;;;;;;19.60;18.60;;;;;22.16;53.43;100049.38;5137108;27;8930;-64
2022/07/30 07:41:58;;;;;;;;;21.20;20.80;;;;;22.18;53.22;100052.72;5118478;27;8982;-61
2022/07/30 07:44:25;;;;;;;;;22.40;22.00;;;;;22.26;53.22;100056.16;5135862;27;8902;-62
2022/07/30 07:46:53;;;;;;;;;22.00;20.00;;;;;22.31;53.30;100052.88;5133929;27;8853;-62
2022/07/30 07:49:21;;;;;;;;;22.00;20.40;;;;;22.37;53.49;100057.50;5115306;28;8912;-62
2022/07/30 07:51:49;;;;;;;;;21.60;21.40;;;;;22.51;53.27;100056.63;5119605;27;8806;-62
2022/07/30 07:54:17;;;;;;;;;23.20;19.80;;;;;22.63;52.83;100046.91;5135406;27;8834;-62
2022/07/30 07:56:50;;;;;;;;;16.80;15.20;;;;;22.70;52.64;100054.06;5133025;27;8836;-61
2022/07/30 07:59:19;;;;;;;;;18.00;17.00;;;;;22.80;52.69;100059.16;5132943;27;8842;-62
2022/07/30 08:01:48;;;;;;;;;23.80;20.20;;;;;22.84;52.57;100055.84;5115300;28;8847;-62
2022/07/30 08:04:16;;;;;;;;;16.40;15.40;;;;;22.92;52.45;100054.88;5115558;28;8831;-67
2022/07/30 08:06:44;;;;;;;;;20.80;18.60;;;;;23.03;52.84;100065.19;5115813;27;8950;-62
2022/07/30 08:09:12;;;;;;;;;22.00;20.00;;;;;23.10;52.61;100060.63;5116143;27;8835;-61
2022/07/30 08:11:39;;;;;;;;;20.00;19.20;;;;;23.17;52.66;100058.84;5115978;27;8815;-62
2022/07/30 08:14:07;;;;;;;;;25.20;23.60;;;;;23.21;52.27;100054.69;5124758;27;8828;-62
2022/07/30 08:16:35;;;;;;;;;22.40;20.40;;;;;23.32;52.39;100051.41;5134417;27;9479;-61
2022/07/30 08:19:03;;;;;;;;;21.80;19.20;;;;;23.39;52.46;100060.44;5135086;27;8841;-62
2022/07/30 08:21:31;;;;;;;;;19.80;17.40;;;;;23.42;52.50;100062.75;5133976;27;8826;-61
2022/07/30 08:23:59;;;;;;;;;24.20;21.40;;;;;23.49;52.34;100066.34;5134205;27;8833;-62
2022/07/30 08:26:27;;;;;;;;;22.40;19.00;;;;;23.60;52.17;100068.50;5134206;27;8818;-62
2022/07/30 08:28:55;;;;;;;;;25.40;19.60;;;;;23.73;51.93;100068.53;5130547;27;9810;-62
2022/07/30 08:31:22;;;;;;;;;25.40;24.20;;;;;23.72;52.26;100072.31;5135300;27;8834;-61
2022/07/30 08:33:50;;;;;;;;;22.20;20.60;;;;;23.63;52.50;100066.22;5135558;27;8838;-62
2022/07/30 08:36:18;;;;;;;;;31.40;28.60;;;;;23.65;52.05;100071.44;5134344;27;9588;-61
2022/07/30 08:38:52;;;;;;;;;15.20;13.60;;;;;23.64;52.13;100075.19;5135126;27;8940;-63
2022/07/30 08:41:20;;;;;;;;;24.20;21.60;;;;;23.75;52.19;100067.28;5134825;27;8890;-61
2022/07/30 08:43:48;;;;;;;;;26.00;22.40;;;;;23.91;52.21;100071.59;5132841;27;8930;-62
2022/07/30 08:46:16;;;;;;;;;33.60;28.00;;;;;24.04;51.44;100077.91;5121004;28;8832;-62
2022/07/30 08:48:44;;;;;;;;;22.40;21.20;;;;;24.00;52.01;100078.53;5115124;28;8901;-65
2022/07/30 08:51:12;;;;;;;;;32.40;29.20;;;;;23.98;52.23;100078.72;5127582;27;8965;-62
2022/07/30 08:53:39;;;;;;;;;35.20;28.80;;;;;23.92;51.89;100076.84;5134596;27;9512;-61
2022/07/30 08:56:07;;;;;;;;;28.40;26.00;;;;;23.81;52.50;100071.94;5132562;27;8846;-63
2022/07/30 08:58:35;;;;;;;;;22.80;19.60;;;;;23.83;52.56;100074.44;5122094;27;8828;-62
2022/07/30 09:01:03;;;;;;;;;26.60;24.00;;;;;23.95;52.15;100079.13;5114840;27;8868;-61
2022/07/30 09:03:31;;;;;;;;;36.40;33.80;;;;;24.06;51.81;100086.69;5114655;28;8836;-62
2022/07/30 09:05:59;;;;;;;;;35.40;33.20;;;;;24.13;51.45;100087.56;5114565;27;8831;-63
2022/07/30 09:08:27;;;;;;;;;33.00;27.60;;;;;24.23;51.47;100082.56;5118832;28;8832;-61
2022/07/30 09:10:55;;;;;;;;;36.00;32.80;;;;;24.41;50.75;100074.63;5118685;27;8871;-61
2022/07/30 09:13:22;;;;;;;;;33.60;28.40;;;;;24.54;50.82;100081.97;5119010;28;8847;-62
2022/07/30 09:15:50;;;;;;;;;35.60;28.80;;;;;24.66;50.67;100088.53;5126365;27;8849;-62
2022/07/30 09:18:18;;;;;;;;;35.40;31.00;;;;;24.75;50.87;100084.56;5138690;27;8976;-65
2022/07/30 09:20:46;;;;;;;;;33.60;28.60;;;;;24.83;50.60;100093.38;5138844;27;8841;-62
2022/07/30 09:23:13;;;;;;;;;41.00;36.40;;;;;24.81;50.35;100091.91;5132975;27;8950;-61
2022/07/30 09:25:43;;;;;;;;;33.40;31.60;;;;;24.81;50.79;100089.16;5120405;27;8802;-62
2022/07/30 09:28:12;;;;;;;;;28.80;24.20;;;;;24.87;50.83;100088.34;5126190;27;8857;-62
2022/07/30 09:30:43;;;;;;;;;22.00;18.80;;;;;24.90;50.41;100093.34;5121796;27;8860;-62
2022/07/30 09:33:11;;;;;;;;;25.80;23.40;;;;;25.02;50.34;100097.97;5118076;27;8985;-62
2022/07/30 09:35:39;;;;;;;;;26.80;24.80;;;;;25.12;50.16;100098.41;5118431;28;8847;-62
2022/07/30 09:38:07;;;;;;;;;29.00;24.40;;;;;25.23;49.67;100102.38;5117331;28;8820;-62
2022/07/30 09:40:34;;;;;;;;;24.60;23.60;;;;;25.38;49.77;100094.78;5116760;28;8874;-63
2022/07/30 09:43:02;;;;;;;;;21.00;19.00;;;;;25.50;49.18;100098.56;5117023;28;8954;-62
2022/07/30 09:45:30;;;;;;;;;26.80;25.00;;;;;25.66;48.78;100105.22;5117026;28;8831;-62
2022/07/30 09:48:02;;;;;;;;;25.20;20.60;;;;;25.92;47.89;100087.94;5122758;27;8866;-62
2022/07/30 09:50:29;;;;;;;;;21.20;19.60;;;;;26.22;47.19;100098.09;5117499;28;8832;-62
2022/07/30 09:52:57;;;;;;;;;19.20;16.20;;;;;26.51;47.38;100096.63;5129580;27;8821;-61
2022/07/30 09:55:25;;;;;;;;;17.40;16.40;;;;;26.71;46.66;100097.38;5135395;27;8830;-62
2022/07/30 09:57:56;;;;;;;;;15.00;14.80;;;;;26.86;46.14;100103.34;5128911;27;8904;-62
2022/07/30 10:00:25;;;;;;;;;15.40;13.80;;;;;26.98;45.63;100102.41;5116662;28;8860;-63
2022/07/30 10:02:53;;;;;;;;;13.80;13.00;;;;;27.14;45.81;100095.56;5132327;27;8856;-61
2022/07/30 10:05:21;;;;;;;;;11.60;10.60;;;;;27.34;45.03;100099.78;5117575;28;8842;-61
2022/07/30 10:07:51;;;;;;;;;16.60;14.20;;;;;27.62;44.66;100088.34;5117204;27;8820;-62
2022/07/30 10:10:18;;;;;;;;;17.00;14.20;;;;;27.98;44.38;100099.31;5116941;28;8852;-62
2022/07/30 10:12:46;;;;;;;;;14.20;13.60;;;;;28.35;43.82;100084.47;5116581;28;8824;-62
2022/07/30 10:15:14;;;;;;;;;10.80;8.80;;;;;28.74;42.98;100087.44;5116309;27;8824;-61
2022/07/30 10:17:42;;;;;;;;;17.80;15.00;;;;;29.20;42.37;100090.28;5116139;27;8844;-62
2022/07/30 10:20:10;;;;;;;;;16.00;15.20;;;;;29.53;42.22;100092.44;5116410;27;8835;-62
2022/07/30 10:22:39;;;;;;;;;16.00;15.20;;;;;29.91;41.71;100084.50;5116453;28;8847;-62
2022/07/30 10:25:07;;;;;;;;;21.20;18.80;;;;;30.15;41.39;100092.44;5116990;27;8814;-62
2022/07/30 10:27:34;;;;;;;;;18.80;16.00;;;;;30.34;40.30;100088.41;5118332;27;8841;-62
2022/07/30 10:30:02;;;;;;;;;17.80;16.60;;;;;30.58;40.35;100083.63;5136640;27;9588;-62
2022/07/30 10:32:32;;;;;;;;;18.60;17.40;;;;;30.82;40.47;100092.38;5137068;27;8818;-62
2022/07/30 10:34:59;;;;;;;;;17.60;16.80;;;;;31.08;39.73;100090.88;5136302;27;8824;-62
2022/07/30 10:37:30;;;;;;;;;20.60;18.20;;;;;31.40;39.43;100091.94;5136635;27;8941;-62
2022/07/30 10:39:59;;;;;;;;;16.00;15.00;;;;;31.60;39.22;100084.84;5137508;27;8860;-62
2022/07/30 10:42:29;;;;;;;;;22.20;19.20;;;;;31.88;38.26;100092.13;5136573;27;8814;-61
2022/07/30 10:44:56;;;;;;;;;20.00;18.60;;;;;32.18;38.54;100098.00;5133267;27;8818;-62
2022/07/30 10:47:25;;;;;;;;;23.00;21.20;;;;;32.03;38.77;100095.06;5115160;28;8840;-62
2022/07/30 10:50:05;;;;;;;;;22.40;20.80;;;;;31.80;38.67;100100.84;5118870;27;8804;-62
2022/07/30 10:52:37;;;;;;;;;25.40;22.00;;;;;31.32;39.72;100086.88;5132209;27;9491;-62
2022/07/30 10:55:05;;;;;;;;;23.80;18.80;;;;;31.50;39.14;100090.19;5128459;27;8808;-62
2022/07/30 10:57:33;;;;;;;;;23.00;21.00;;;;;31.70;39.23;100090.50;5116725;27;8820;-62
2022/07/30 11:00:08;;;;;;;;;22.80;19.20;;;;;32.09;38.28;100088.53;5116219;27;8852;-62
2022/07/30 11:02:38;;;;;;;;;20.20;17.40;;;;;32.54;37.41;100080.78;5116668;28;9520;-62
2022/07/30 11:05:06;;;;;;;;;20.80;18.00;;;;;33.00;36.99;100080.94;5115618;27;9517;-62
2022/07/30 11:07:34;;;;;;;;;20.40;19.40;;;;;32.92;36.91;100072.34;5117553;27;9531;-62
2022/07/30 11:10:02;;;;;;;;;22.40;21.00;;;;;31.97;37.89;100087.81;5133501;27;9614;-62
2022/07/30 11:12:36;;;;;;;;;22.80;18.40;;;;;31.44;38.95;100091.22;5135479;27;8900;-62
2022/07/30 11:15:05;;;;;;;;;26.60;23.20;;;;;30.90;39.95;100091.94;5134148;27;8810;-62
2022/07/30 11:17:45;;;;;;;;;15.60;14.80;;;;;30.85;39.99;100091.88;5135296;27;8822;-62
2022/07/30 11:20:17;;;;;;;;;19.40;12.60;;;;;30.08;40.78;100089.00;5134505;27;8841;-62
2022/07/30 11:22:45;;;;;;;;;19.80;17.40;;;;;29.32;42.08;100090.28;5132065;27;8862;-62
2022/07/30 11:25:17;;;;;;;;;14.60;13.80;;;;;29.82;41.38;100091.44;5134972;27;8832;-62
2022/07/30 11:27:47;;;;;;;;;22.00;17.80;;;;;30.75;40.04;100080.69;5123181;27;8820;-63
2022/07/30 11:30:15;;;;;;;;;18.40;14.60;;;;;31.56;38.55;100080.91;5114926;28;8889;-62